createdAt,value
2018-05-26T00:00:25.648Z,9.47
2018-05-26T00:02:53.092Z,9.43
2018-05-26T00:05:20.532Z,9.90
2018-05-26T00:07:48.753Z,9.40
2018-05-26T00:10:16.195Z,9.80
2018-05-26T00:12:43.656Z,9.73
2018-05-26T00:15:11.095Z,9.77
2018-05-26T00:17:38.555Z,9.13
2018-05-26T00:20:06.000Z,9.60
2018-05-26T00:22:33.457Z,10.10
2018-05-26T00:25:00.940Z,10.03
2018-05-26T00:27:28.407Z,10.53
2018-05-26T00:29:55.849Z,10.27
2018-05-26T00:32:24.075Z,10.00
2018-05-26T00:34:51.520Z,11.20
2018-05-26T00:37:18.980Z,10.03
2018-05-26T00:39:46.424Z,10.00
2018-05-26T00:42:14.652Z,10.67
2018-05-26T00:44:42.095Z,10.73
2018-05-26T00:47:09.556Z,10.50
2018-05-26T00:49:37.772Z,10.10
2018-05-26T00:52:05.226Z,9.37
2018-05-26T00:54:33.436Z,9.10
2018-05-26T00:57:00.888Z,10.37
2018-05-26T00:59:28.343Z,12.43
2018-05-26T01:01:55.790Z,11.30
2018-05-26T01:04:24.019Z,12.20
2018-05-26T01:06:51.469Z,11.17
2018-05-26T01:09:19.003Z,11.30
2018-05-26T01:11:46.452Z,11.70
2018-05-26T01:14:13.940Z,11.43
2018-05-26T01:16:41.383Z,12.33
2018-05-26T01:19:08.844Z,11.47
2018-05-26T01:21:36.287Z,10.93
2018-05-26T01:24:03.751Z,11.10
2018-05-26T01:26:31.980Z,11.03
2018-05-26T01:28:59.444Z,11.40
2018-05-26T01:31:26.888Z,12.40
2018-05-26T01:33:54.343Z,11.40
2018-05-26T01:36:21.843Z,12.27
2018-05-26T01:38:50.025Z,12.73
2018-05-26T01:41:17.480Z,12.17
2018-05-26T01:43:44.948Z,12.67
2018-05-26T01:46:12.476Z,13.23
2018-05-26T01:48:40.090Z,12.20
2018-05-26T01:51:08.288Z,12.90
2018-05-26T01:53:35.813Z,12.37
2018-05-26T01:56:03.285Z,13.67
2018-05-26T01:58:30.732Z,12.40
2018-05-26T02:00:58.183Z,12.73
2018-05-26T02:03:25.643Z,12.47
2018-05-26T02:05:53.087Z,12.83
2018-05-26T02:08:20.599Z,12.50
2018-05-26T02:10:48.059Z,13.20
2018-05-26T02:13:15.515Z,12.57
2018-05-26T02:15:43.145Z,12.47
2018-05-26T02:18:10.598Z,12.50
2018-05-26T02:20:38.807Z,12.57
2018-05-26T02:23:07.036Z,12.23
2018-05-26T02:25:34.484Z,14.03
2018-05-26T02:28:01.940Z,12.67
2018-05-26T02:30:29.388Z,12.30
2018-05-26T02:32:57.615Z,12.10
2018-05-26T02:35:25.177Z,12.20
2018-05-26T02:37:52.635Z,14.20
2018-05-26T02:40:20.088Z,14.10
2018-05-26T02:42:48.303Z,13.70
2018-05-26T02:45:15.762Z,12.90
2018-05-26T02:47:44.106Z,13.47
2018-05-26T02:50:11.576Z,13.23
2018-05-26T02:52:39.019Z,13.77
2018-05-26T02:55:06.466Z,13.90
2018-05-26T02:57:33.951Z,13.03
2018-05-26T03:00:01.405Z,14.20
2018-05-26T03:02:28.856Z,14.47
2018-05-26T03:05:02.744Z,13.77
2018-05-26T03:07:35.853Z,13.43
2018-05-26T03:10:09.121Z,13.33
2018-05-26T03:12:42.505Z,14.30
2018-05-26T03:15:09.462Z,12.80
2018-05-26T03:20:38.709Z,13.30
2018-05-26T03:23:06.172Z,13.33
2018-05-26T03:25:34.389Z,12.47
2018-05-26T03:28:01.949Z,14.50
2018-05-26T03:30:29.344Z,13.30
2018-05-26T03:32:56.861Z,13.80
2018-05-26T03:35:25.098Z,12.73
2018-05-26T03:37:52.669Z,13.03
2018-05-26T03:40:20.134Z,15.03
2018-05-26T03:42:47.589Z,15.47
2018-05-26T03:45:15.061Z,13.50
2018-05-26T03:47:42.521Z,15.10
2018-05-26T03:50:09.980Z,15.40
2018-05-26T03:52:37.443Z,14.70
2018-05-26T03:55:35.384Z,14.27
2018-05-26T03:58:15.578Z,15.27
2018-05-26T04:00:43.792Z,15.13
2018-05-26T04:03:11.274Z,13.60
2018-05-26T04:05:38.728Z,13.87
2018-05-26T04:08:06.194Z,14.20
2018-05-26T04:10:33.668Z,12.90
2018-05-26T04:13:01.123Z,13.83
2018-05-26T04:15:29.356Z,14.83
2018-05-26T04:17:56.832Z,13.80
2018-05-26T04:20:24.314Z,13.87
2018-05-26T04:22:51.772Z,12.97
2018-05-26T04:25:19.245Z,12.90
2018-05-26T04:27:46.715Z,12.93
2018-05-26T04:30:14.190Z,12.90
2018-05-26T04:32:41.644Z,12.87
2018-05-26T04:35:09.229Z,12.83
2018-05-26T04:37:36.933Z,13.97
2018-05-26T04:40:05.467Z,13.07
2018-05-26T04:42:33.058Z,13.73
2018-05-26T04:45:00.521Z,12.07
2018-05-26T04:47:27.979Z,11.93
2018-05-26T04:49:55.437Z,13.23
2018-05-26T04:52:22.892Z,13.27
2018-05-26T04:54:50.371Z,12.43
2018-05-26T04:57:17.829Z,13.70
2018-05-26T04:59:45.296Z,13.93
2018-05-26T05:02:12.757Z,12.30
2018-05-26T05:04:40.998Z,12.23
2018-05-26T05:07:08.541Z,13.77
2018-05-26T05:09:36.009Z,13.53
2018-05-26T05:12:03.482Z,14.27
2018-05-26T05:14:30.936Z,13.90
2018-05-26T05:16:58.401Z,13.00
2018-05-26T05:19:25.873Z,12.30
2018-05-26T05:21:54.125Z,13.40
2018-05-26T05:24:21.605Z,13.20
2018-05-26T05:26:49.862Z,12.37
2018-05-26T05:29:18.157Z,12.60
2018-05-26T05:31:45.605Z,12.37
2018-05-26T05:34:13.083Z,12.47
2018-05-26T05:36:40.541Z,12.63
2018-05-26T05:39:08.014Z,13.33
2018-05-26T05:41:35.474Z,12.37
2018-05-26T05:44:02.961Z,11.37
2018-05-26T05:46:30.530Z,12.47
2018-05-26T05:48:58.050Z,12.87
2018-05-26T05:51:26.256Z,12.23
2018-05-26T05:53:54.489Z,11.80
2018-05-26T05:56:21.990Z,12.33
2018-05-26T05:58:49.434Z,12.30
2018-05-26T06:01:16.969Z,12.83
2018-05-26T06:03:44.416Z,11.70
2018-05-26T06:06:11.880Z,12.60
2018-05-26T06:08:39.332Z,10.97
2018-05-26T06:11:07.564Z,12.40
2018-05-26T06:13:35.027Z,12.83
2018-05-26T06:16:02.493Z,13.53
2018-05-26T06:18:29.948Z,14.70
2018-05-26T06:20:58.388Z,13.43
2018-05-26T06:23:25.848Z,13.20
2018-05-26T06:25:53.330Z,13.50
2018-05-26T06:28:20.785Z,12.53
2018-05-26T06:30:48.256Z,12.13
2018-05-26T06:33:15.709Z,14.87
2018-05-26T06:35:43.181Z,13.80
2018-05-26T06:38:10.640Z,12.83
2018-05-26T06:40:38.109Z,11.70
2018-05-26T06:43:05.556Z,12.07
2018-05-26T06:45:33.033Z,12.87
2018-05-26T06:48:00.492Z,12.03
2018-05-26T06:50:28.099Z,10.57
2018-05-26T06:52:55.553Z,12.00
2018-05-26T06:55:23.153Z,12.13
2018-05-26T06:57:50.609Z,11.60
2018-05-26T07:00:18.117Z,12.17
2018-05-26T07:02:45.560Z,12.23
2018-05-26T07:05:13.034Z,11.57
2018-05-26T07:07:40.501Z,12.10
2018-05-26T07:10:08.103Z,11.13
2018-05-26T07:12:36.331Z,11.53
2018-05-26T07:15:03.866Z,11.07
2018-05-26T07:17:32.095Z,11.87
2018-05-26T07:19:59.594Z,10.80
2018-05-26T07:22:27.056Z,10.90
2018-05-26T07:24:54.526Z,10.10
2018-05-26T07:27:21.975Z,11.47
2018-05-26T07:29:49.444Z,11.30
2018-05-26T07:32:16.899Z,12.67
2018-05-26T07:34:44.360Z,11.47
2018-05-26T07:37:11.808Z,9.90
2018-05-26T07:39:40.178Z,9.77
2018-05-26T07:42:07.624Z,12.20
2018-05-26T07:44:35.154Z,11.97
2018-05-26T07:47:02.719Z,11.17
2018-05-26T07:49:30.936Z,11.67
2018-05-26T07:51:58.399Z,12.37
2018-05-26T07:54:25.864Z,10.10
2018-05-26T07:56:54.983Z,9.90
2018-05-26T07:59:22.429Z,9.77
2018-05-26T08:01:49.884Z,10.80
2018-05-26T08:04:18.334Z,11.07
2018-05-26T08:06:45.781Z,11.13
2018-05-26T08:09:13.228Z,9.67
2018-05-26T08:11:40.703Z,10.00
2018-05-26T08:14:08.155Z,9.80
2018-05-26T08:16:35.625Z,10.57
2018-05-26T08:19:03.077Z,10.60
2018-05-26T08:21:31.324Z,10.20
2018-05-26T08:23:58.804Z,10.17
2018-05-26T08:26:26.461Z,10.17
2018-05-26T08:28:53.917Z,10.00
2018-05-26T08:31:21.417Z,9.57
2018-05-26T08:33:48.929Z,8.17
2018-05-26T08:36:16.336Z,8.67
2018-05-26T08:38:43.793Z,12.53
2018-05-26T08:41:11.282Z,8.63
2018-05-26T08:43:38.727Z,9.00
2018-05-26T08:46:06.228Z,9.27
2018-05-26T08:48:33.714Z,9.67
2018-05-26T08:51:01.176Z,10.53
2018-05-26T08:53:28.668Z,10.83
2018-05-26T08:55:56.293Z,8.87
2018-05-26T08:58:23.741Z,7.67
2018-05-26T09:00:51.296Z,8.07
2018-05-26T09:03:18.741Z,9.20
2018-05-26T09:05:47.092Z,9.53
2018-05-26T09:08:14.756Z,9.87
2018-05-26T09:10:43.043Z,9.30
2018-05-26T09:13:10.664Z,11.17
2018-05-26T09:15:38.896Z,9.90
2018-05-26T09:18:06.337Z,9.43
2018-05-26T09:20:33.813Z,8.13
2018-05-26T09:23:01.262Z,8.13
2018-05-26T09:25:29.554Z,9.67
2018-05-26T09:27:56.937Z,8.77
2018-05-26T09:30:24.549Z,9.80
2018-05-26T09:32:52.002Z,7.87
2018-05-26T09:35:19.464Z,10.00
2018-05-26T09:37:47.055Z,7.77
2018-05-26T09:40:14.546Z,8.30
2018-05-26T09:42:41.988Z,7.97
2018-05-26T09:45:09.457Z,8.23
2018-05-26T09:47:36.910Z,7.60
2018-05-26T09:50:04.378Z,7.67
2018-05-26T09:52:31.831Z,7.47
2018-05-26T09:54:59.317Z,8.37
2018-05-26T09:57:26.797Z,9.90
2018-05-26T09:59:54.258Z,7.67
2018-05-26T10:02:21.818Z,7.17
2018-05-26T10:04:50.154Z,7.40
2018-05-26T10:07:17.605Z,8.17
2018-05-26T10:09:45.093Z,8.97
2018-05-26T10:12:12.541Z,7.57
2018-05-26T10:14:39.999Z,8.17
2018-05-26T10:17:07.459Z,7.30
2018-05-26T10:19:34.923Z,7.80
2018-05-26T10:22:02.390Z,7.17
2018-05-26T10:24:29.836Z,8.80
2018-05-26T10:26:58.065Z,7.20
2018-05-26T10:29:25.649Z,7.10
2018-05-26T10:31:53.109Z,8.27
2018-05-26T10:34:20.588Z,7.43
2018-05-26T10:36:48.148Z,7.97
2018-05-26T10:39:15.600Z,7.60
2018-05-26T10:41:43.070Z,7.33
2018-05-26T10:44:10.532Z,6.50
2018-05-26T10:46:38.008Z,7.00
2018-05-26T10:49:05.466Z,7.07
2018-05-26T10:51:33.687Z,6.97
2018-05-26T10:54:01.143Z,8.43
2018-05-26T10:56:28.597Z,7.73
2018-05-26T10:58:56.052Z,8.07
2018-05-26T11:01:23.692Z,8.23
2018-05-26T11:03:51.140Z,7.10
2018-05-26T11:06:18.598Z,8.87
2018-05-26T11:08:46.054Z,6.43
2018-05-26T11:11:13.558Z,7.17
2018-05-26T11:13:40.996Z,7.30
2018-05-26T11:16:08.587Z,6.83
2018-05-26T11:18:35.954Z,6.80
2018-05-26T11:21:03.426Z,13.03
2018-05-26T11:23:30.955Z,7.13
2018-05-26T11:25:58.449Z,6.67
2018-05-26T11:28:25.929Z,6.53
2018-05-26T11:30:53.428Z,6.67
2018-05-26T11:33:20.876Z,6.17
2018-05-26T11:35:48.340Z,7.43
2018-05-26T11:38:15.794Z,5.90
2018-05-26T11:40:43.254Z,7.30
2018-05-26T11:43:10.715Z,6.60
2018-05-26T11:45:38.181Z,6.90
2018-05-26T11:48:05.641Z,7.37
2018-05-26T11:50:33.956Z,6.93
2018-05-26T11:53:01.421Z,7.33
2018-05-26T11:55:28.968Z,7.07
2018-05-26T11:57:56.426Z,7.40
2018-05-26T12:00:24.716Z,7.63
2018-05-26T12:02:52.936Z,7.20
2018-05-26T12:05:20.402Z,8.17
2018-05-26T12:07:47.858Z,5.70
2018-05-26T12:10:15.329Z,5.63
2018-05-26T12:12:42.794Z,6.67
2018-05-26T12:15:10.341Z,6.93
2018-05-26T12:17:37.784Z,7.03
2018-05-26T12:20:05.249Z,7.27
2018-05-26T12:22:32.709Z,7.77
2018-05-26T12:25:00.186Z,6.13
2018-05-26T12:27:27.680Z,6.43
2018-05-26T12:29:55.130Z,8.00
2018-05-26T12:32:22.614Z,6.10
2018-05-26T12:34:50.046Z,5.77
2018-05-26T12:37:17.508Z,6.33
2018-05-26T12:39:44.966Z,6.27
2018-05-26T12:42:12.438Z,5.90
2018-05-26T12:44:39.897Z,6.00
2018-05-26T12:47:07.356Z,6.00
2018-05-26T12:49:34.811Z,8.30
2018-05-26T12:52:03.049Z,5.57
2018-05-26T12:54:30.498Z,7.13
2018-05-26T12:56:57.967Z,9.63
2018-05-26T12:59:25.441Z,11.93
2018-05-26T13:01:52.897Z,5.67
2018-05-26T13:04:20.360Z,6.83
2018-05-26T13:06:47.826Z,5.80
2018-05-26T13:09:15.329Z,5.60
2018-05-26T13:11:42.793Z,6.87
2018-05-26T13:14:10.249Z,5.80
2018-05-26T13:16:37.837Z,6.00
2018-05-26T13:19:05.309Z,6.00
2018-05-26T13:21:32.778Z,6.80
2018-05-26T13:24:00.388Z,6.33
2018-05-26T13:26:28.628Z,6.00
2018-05-26T13:28:56.081Z,6.93
2018-05-26T13:31:23.955Z,5.67
2018-05-26T13:33:51.455Z,5.77
2018-05-26T13:36:18.941Z,5.87
2018-05-26T13:38:46.407Z,5.70
2018-05-26T13:41:13.876Z,5.60
2018-05-26T13:43:41.342Z,5.63
2018-05-26T13:46:08.894Z,5.67
2018-05-26T13:48:36.343Z,6.63
2018-05-26T13:51:03.810Z,5.70
2018-05-26T13:53:31.304Z,6.00
2018-05-26T13:55:59.604Z,6.17
2018-05-26T13:58:26.939Z,5.63
2018-05-26T14:00:54.406Z,6.43
2018-05-26T14:03:21.854Z,7.87
2018-05-26T14:05:50.118Z,6.87
2018-05-26T14:08:19.099Z,5.70
2018-05-26T14:10:46.577Z,7.40
2018-05-26T14:13:14.014Z,7.33
2018-05-26T14:15:41.474Z,6.60
2018-05-26T14:18:08.949Z,6.37
2018-05-26T14:20:36.393Z,6.93
2018-05-26T14:23:04.636Z,6.23
2018-05-26T14:25:32.188Z,9.47
2018-05-26T14:27:59.644Z,6.50
2018-05-26T14:30:27.138Z,6.03
2018-05-26T14:32:54.635Z,5.63
2018-05-26T14:35:22.085Z,8.33
2018-05-26T14:37:49.549Z,12.87
2018-05-26T14:40:16.998Z,6.67
2018-05-26T14:42:44.457Z,8.97
2018-05-26T14:45:11.931Z,6.03
2018-05-26T14:47:39.393Z,6.00
2018-05-26T14:50:06.890Z,5.50
2018-05-26T14:52:35.064Z,8.50
2018-05-26T14:55:02.508Z,5.50
2018-05-26T14:57:29.973Z,6.57
2018-05-26T14:59:58.189Z,6.17
2018-05-26T15:02:25.648Z,5.77
2018-05-26T15:04:53.137Z,5.23
2018-05-26T15:07:20.622Z,5.33
2018-05-26T15:09:48.038Z,5.67
2018-05-26T15:12:15.504Z,6.20
2018-05-26T15:14:43.137Z,5.57
2018-05-26T15:17:11.381Z,6.13
2018-05-26T15:19:38.856Z,5.43
2018-05-26T15:22:06.325Z,5.83
2018-05-26T15:24:33.778Z,6.07
2018-05-26T15:27:01.241Z,5.57
2018-05-26T15:29:28.764Z,5.93
2018-05-26T15:31:56.238Z,5.90
2018-05-26T15:34:23.745Z,5.27
2018-05-26T15:36:52.043Z,5.70
2018-05-26T15:39:19.498Z,6.33
2018-05-26T15:41:47.725Z,5.63
2018-05-26T15:44:15.174Z,5.83
2018-05-26T15:46:42.632Z,5.53
2018-05-26T15:49:10.094Z,9.10
2018-05-26T15:51:38.330Z,5.93
2018-05-26T15:54:05.781Z,6.03
2018-05-26T15:56:33.243Z,5.53
2018-05-26T15:59:00.719Z,6.03
2018-05-26T16:01:28.226Z,6.67
2018-05-26T16:03:55.739Z,7.07
2018-05-26T16:06:23.952Z,7.90
2018-05-26T16:08:51.402Z,5.97
2018-05-26T16:11:18.861Z,9.73
2018-05-26T16:13:46.494Z,6.37
2018-05-26T16:16:13.943Z,6.40
2018-05-26T16:18:41.429Z,6.33
2018-05-26T16:21:08.877Z,5.43
2018-05-26T16:23:36.489Z,6.77
2018-05-26T16:26:03.930Z,7.27
2018-05-26T16:28:31.390Z,6.40
2018-05-26T16:30:58.841Z,5.87
2018-05-26T16:33:26.305Z,6.63
2018-05-26T16:35:53.769Z,6.00
2018-05-26T16:38:21.234Z,6.83
2018-05-26T16:40:48.680Z,6.03
2018-05-26T16:43:16.900Z,6.33
2018-05-26T16:45:44.392Z,7.10
2018-05-26T16:48:11.871Z,6.47
2018-05-26T16:50:39.322Z,5.50
2018-05-26T16:53:07.067Z,7.73
2018-05-26T16:55:34.520Z,6.33
2018-05-26T16:58:02.760Z,7.23
2018-05-26T17:00:30.212Z,8.40
2018-05-26T17:02:57.681Z,7.30
2018-05-26T17:05:25.137Z,10.27
2018-05-26T17:07:52.637Z,6.20
2018-05-26T17:10:20.086Z,8.93
2018-05-26T17:12:47.544Z,9.93
2018-05-26T17:15:14.992Z,5.60
2018-05-26T17:17:43.221Z,7.53
2018-05-26T17:20:10.801Z,7.53
2018-05-26T17:22:38.274Z,10.33
2018-05-26T17:25:05.721Z,9.53
2018-05-26T17:27:33.190Z,8.63
2018-05-26T17:30:00.676Z,6.37
2018-05-26T17:32:28.186Z,8.80
2018-05-26T17:34:56.512Z,7.77
2018-05-26T17:37:24.050Z,11.03
2018-05-26T17:39:52.362Z,7.53
2018-05-26T17:42:20.582Z,8.10
2018-05-26T17:44:48.079Z,8.77
2018-05-26T17:47:15.540Z,7.77
2018-05-26T17:49:42.988Z,6.43
2018-05-26T17:52:10.522Z,5.97
2018-05-26T17:54:37.981Z,8.03
2018-05-26T17:57:06.225Z,7.43
2018-05-26T17:59:33.730Z,10.73
2018-05-26T18:02:01.966Z,6.30
2018-05-26T18:04:29.419Z,6.07
2018-05-26T18:06:56.917Z,10.43
2018-05-26T18:09:24.757Z,6.50
2018-05-26T18:11:52.965Z,8.67
2018-05-26T18:14:20.520Z,8.40
2018-05-26T18:16:47.968Z,5.50
2018-05-26T18:19:16.202Z,5.67
2018-05-26T18:21:43.738Z,7.17
2018-05-26T18:24:11.242Z,8.90
2018-05-26T18:26:38.688Z,6.13
2018-05-26T18:29:06.292Z,6.23
2018-05-26T18:31:33.863Z,6.93
2018-05-26T18:34:01.322Z,8.17
2018-05-26T18:36:28.869Z,10.83
2018-05-26T18:38:56.332Z,8.47
2018-05-26T18:41:23.889Z,10.30
2018-05-26T18:43:51.476Z,8.50
2018-05-26T18:46:18.958Z,7.70
2018-05-26T18:48:46.449Z,8.20
2018-05-26T18:51:14.037Z,9.60
2018-05-26T18:53:41.625Z,8.87
2018-05-26T18:56:09.145Z,12.43
2018-05-26T18:58:37.492Z,19.00
2018-05-26T19:01:05.712Z,20.67
2018-05-26T19:03:33.333Z,30.13
2018-05-26T19:06:00.773Z,30.77
2018-05-26T19:08:28.296Z,35.57
2018-05-26T19:10:56.553Z,36.33
2018-05-26T19:13:24.141Z,32.03
2018-05-26T19:15:52.427Z,27.53
2018-05-26T19:18:19.956Z,21.77
2018-05-26T19:20:47.436Z,19.65
2018-05-26T19:23:14.907Z,13.73
2018-05-26T19:25:42.356Z,11.23
2018-05-26T19:28:09.835Z,11.07
2018-05-26T19:30:37.276Z,10.97
2018-05-26T19:33:04.746Z,13.63
2018-05-26T19:35:32.196Z,10.77
2018-05-26T19:38:00.723Z,11.37
2018-05-26T19:40:28.168Z,10.10
2018-05-26T19:42:55.741Z,10.20
2018-05-26T19:45:23.202Z,13.33
2018-05-26T19:47:51.434Z,13.57
2018-05-26T19:50:18.922Z,14.30
2018-05-26T19:52:46.393Z,14.07
2018-05-26T19:55:13.866Z,12.03
2018-05-26T19:57:41.363Z,11.43
2018-05-26T20:00:09.591Z,12.10
2018-05-26T20:02:37.060Z,10.70
2018-05-26T20:05:04.522Z,9.73
2018-05-26T20:07:31.985Z,12.37
2018-05-26T20:09:59.477Z,10.33
2018-05-26T20:12:26.916Z,9.73
2018-05-26T20:14:54.461Z,8.97
2018-05-26T20:17:22.714Z,9.07
2018-05-26T20:19:50.201Z,10.23
2018-05-26T20:22:17.681Z,10.23
2018-05-26T20:24:45.121Z,8.93
2018-05-26T20:27:12.636Z,9.63
2018-05-26T20:29:40.869Z,8.40
2018-05-26T20:32:08.328Z,8.23
2018-05-26T20:34:35.794Z,8.63
2018-05-26T20:37:03.301Z,8.67
2018-05-26T20:39:30.752Z,8.10
2018-05-26T20:41:58.206Z,7.90
2018-05-26T20:44:25.881Z,8.37
2018-05-26T20:46:54.962Z,7.50
2018-05-26T20:49:22.434Z,10.03
2018-05-26T20:51:49.947Z,8.30
2018-05-26T20:54:17.614Z,10.30
2018-05-26T20:56:45.165Z,8.53
2018-05-26T20:59:12.620Z,9.40
2018-05-26T21:01:40.076Z,10.33
2018-05-26T21:04:07.549Z,7.37
2018-05-26T21:06:35.026Z,7.50
2018-05-26T21:09:02.489Z,10.37
2018-05-26T21:11:29.993Z,7.73
2018-05-26T21:13:57.453Z,8.43
2018-05-26T21:16:24.922Z,7.60
2018-05-26T21:18:52.381Z,7.77
2018-05-26T21:21:19.828Z,6.87
2018-05-26T21:23:47.292Z,7.90
2018-05-26T21:26:15.521Z,7.50
2018-05-26T21:28:43.001Z,9.27
2018-05-26T21:31:10.458Z,9.37
2018-05-26T21:33:37.920Z,7.73
2018-05-26T21:36:05.376Z,6.97
2018-05-26T21:38:32.835Z,7.33
2018-05-26T21:41:00.285Z,7.87
2018-05-26T21:43:28.525Z,7.80
2018-05-26T21:45:55.987Z,7.90
2018-05-26T21:48:23.458Z,8.27
2018-05-26T21:50:50.906Z,7.57
2018-05-26T21:53:19.329Z,7.93
2018-05-26T21:55:46.777Z,8.13
2018-05-26T21:58:14.241Z,9.17
2018-05-26T22:00:41.702Z,8.60
2018-05-26T22:03:09.157Z,9.63
2018-05-26T22:05:36.644Z,8.17
2018-05-26T22:08:04.106Z,8.77
2018-05-26T22:10:31.552Z,9.13
2018-05-26T22:12:59.782Z,8.63
2018-05-26T22:15:27.237Z,8.57
2018-05-26T22:17:54.693Z,8.40
2018-05-26T22:20:22.144Z,9.53
2018-05-26T22:22:50.382Z,8.10
2018-05-26T22:25:17.820Z,8.87
2018-05-26T22:27:45.281Z,8.10
2018-05-26T22:30:12.744Z,9.47
2018-05-26T22:32:41.047Z,8.90
2018-05-26T22:35:09.323Z,8.90
2018-05-26T22:37:37.531Z,8.70
2018-05-26T22:40:04.996Z,8.90
2018-05-26T22:42:32.451Z,9.17
2018-05-26T22:45:00.676Z,9.50
2018-05-26T22:47:28.223Z,8.40
2018-05-26T22:49:55.680Z,8.77
2018-05-26T22:52:23.157Z,9.40
2018-05-26T22:54:50.623Z,8.47
2018-05-26T22:57:18.064Z,8.10
2018-05-26T22:59:46.304Z,7.90
2018-05-26T23:02:13.754Z,9.00
2018-05-26T23:04:41.217Z,9.70
2018-05-26T23:07:08.688Z,8.33
2018-05-26T23:09:36.146Z,8.70
2018-05-26T23:12:03.596Z,9.23
2018-05-26T23:14:31.864Z,8.20
2018-05-26T23:16:59.309Z,9.33
2018-05-26T23:19:26.785Z,8.33
2018-05-26T23:21:54.219Z,9.30
2018-05-26T23:24:21.681Z,9.00
2018-05-26T23:26:49.128Z,8.53
2018-05-26T23:29:17.352Z,9.27
2018-05-26T23:31:44.808Z,10.10
2018-05-26T23:34:12.297Z,9.17
2018-05-26T23:36:39.788Z,10.60
2018-05-26T23:39:07.257Z,9.83
2018-05-26T23:41:34.700Z,10.27
2018-05-26T23:44:02.174Z,11.00
2018-05-26T23:46:29.643Z,10.23
2018-05-26T23:48:57.092Z,10.67
2018-05-26T23:51:24.546Z,10.50
2018-05-26T23:53:52.782Z,9.23
2018-05-26T23:56:20.232Z,9.80
2018-05-26T23:58:47.706Z,10.70
